LavenderCAM.net
Leatherhead Weather
 
Leatherhead Weather
 
 





Aviation weather for

London Heathrow (EGLL) and London Gatwick (EGKK)



London Heathrow (EGLL) METAR / Surface Actual
Station name not available
Aug 21, 2019 - 08:50 AM EDT / 2019.08.21 1250 UTC
Wind: from the S (190 degrees) at 12 MPH (10 KT) (direction variable):0
Visibility: greater than 7 mile(s):0
Sky conditions: mostly cloudy
Temperature: 71 F (22 C)
Dew Point: 50 F (10 C)
Relative Humidity: 46%
Pressure (altimeter): 30.30 in. Hg (1026 hPa)
ob: EGLL 211250Z AUTO 19010KT 160V230 9999 BKN046 22/10 Q1026 NOSIG
cycle: 13
London Heathrow (EGLL) TAF / Forecast
2019/08/21 12:09
TAF EGLL 211102Z 2112/2218 22006KT 9999 FEW040


London Gatwick (EGKK) METAR / Surface Actual
Station name not available
Aug 21, 2019 - 08:50 AM EDT / 2019.08.21 1250 UTC
Wind: from the S (190 degrees) at 9 MPH (8 KT) (direction variable):0
Visibility: greater than 7 mile(s):0
Sky conditions: partly cloudy
Temperature: 68 F (20 C)
Dew Point: 51 F (11 C)
Relative Humidity: 56%
Pressure (altimeter): 30.33 in. Hg (1027 hPa)
ob: EGKK 211250Z 19008KT 140V210 9999 FEW033 SCT040 20/11 Q1027
cycle: 13
London Gatwick (EGKK) TAF / Forecast
2019/08/21 12:44
TAF EGKK 211036Z 2112/2218 21008KT 9999 FEW040 
      TEMPO 2200/2207 8000 PROB30 2202/2206 4000 BR